Time;durP1;ratioP1;P1;durP2;ratioP2;P2;SDS_P1;SDS_P2;PMS_P1;PMS_P2;Temp;Humidity;BMP_temperature;BMP_pressure;BME280_temperature;BME280_humidity;BME280_pressure;Samples;Min_cycle;Max_cycle;Signal;HPM_P1;HPM_P2
2022/07/29 00:01:52;;;;;;;3.33;1.00;;;18.20;99.90;;;;;;5010584;28;20197;-55
2022/07/29 00:04:19;;;;;;;3.70;1.10;;;18.20;99.90;;;;;;5012119;28;20231;-55
2022/07/29 00:06:47;;;;;;;2.70;1.30;;;18.20;99.90;;;;;;5011556;28;20292;-54
2022/07/29 00:09:14;;;;;;;2.87;1.20;;;18.20;99.90;;;;;;5012930;28;20604;-54
2022/07/29 00:11:42;;;;;;;2.93;0.97;;;18.20;99.90;;;;;;5010191;28;20197;-54
2022/07/29 00:14:09;;;;;;;2.17;1.17;;;18.20;99.90;;;;;;5014814;28;20215;-53
2022/07/29 00:16:36;;;;;;;1.40;1.27;;;18.20;99.90;;;;;;5014558;28;20196;-54
2022/07/29 00:19:04;;;;;;;3.93;1.10;;;18.20;99.90;;;;;;5014697;28;20196;-54
2022/07/29 00:21:33;;;;;;;1.80;1.20;;;18.30;99.90;;;;;;5016266;28;20209;-54
2022/07/29 00:24:00;;;;;;;3.93;1.00;;;18.20;99.90;;;;;;5017451;28;20245;-54
2022/07/29 00:26:31;;;;;;;4.57;1.30;;;18.30;99.90;;;;;;5012894;28;20233;-54
2022/07/29 00:28:59;;;;;;;3.30;1.30;;;18.50;99.90;;;;;;5012505;28;20264;-54
2022/07/29 00:31:46;;;;;;;2.30;1.00;;;18.40;99.90;;;;;;5021297;28;20703;-54
2022/07/29 00:36:59;;;;;;;3.57;1.20;;;18.40;99.90;;;;;;5015744;28;20207;-54
2022/07/29 00:39:26;;;;;;;4.10;1.30;;;18.30;99.90;;;;;;5016219;28;20610;-54
2022/07/29 00:41:54;;;;;;;2.73;1.03;;;18.40;99.90;;;;;;5015180;28;20296;-54
2022/07/29 00:44:21;;;;;;;4.37;1.20;;;18.20;99.90;;;;;;5018519;28;20551;-54
2022/07/29 00:46:48;;;;;;;3.90;1.37;;;18.20;99.90;;;;;;5013645;28;21783;-53
2022/07/29 00:49:16;;;;;;;2.40;1.10;;;18.20;99.90;;;;;;5015367;28;20232;-54
2022/07/29 00:51:43;;;;;;;2.27;1.20;;;18.00;99.90;;;;;;5013636;28;20220;-53
2022/07/29 00:54:10;;;;;;;3.73;1.20;;;18.00;99.90;;;;;;5014484;28;20218;-53
2022/07/29 00:56:37;;;;;;;1.87;1.10;;;18.10;99.90;;;;;;5018248;28;20205;-54
2022/07/29 00:59:04;;;;;;;2.90;1.30;;;17.90;99.90;;;;;;5014066;28;20194;-56
2022/07/29 01:01:31;;;;;;;7.37;1.33;;;17.90;99.90;;;;;;5015720;28;20204;-54
2022/07/29 01:03:59;;;;;;;2.40;1.20;;;18.00;99.90;;;;;;5014047;28;20305;-53
2022/07/29 01:06:27;;;;;;;4.23;1.20;;;18.00;99.90;;;;;;5000182;28;20219;-54
2022/07/29 01:08:54;;;;;;;3.93;1.40;;;18.20;99.90;;;;;;5014490;28;20232;-54
2022/07/29 01:11:23;;;;;;;1.93;1.20;;;18.40;99.90;;;;;;5013880;28;20201;-52
2022/07/29 01:13:52;;;;;;;1.80;1.23;;;18.40;99.90;;;;;;5012846;28;20662;-54
2022/07/29 01:16:33;;;;;;;2.37;1.33;;;18.40;99.90;;;;;;5013112;28;20206;-54
2022/07/29 01:19:12;;;;;;;2.67;1.47;;;18.50;99.90;;;;;;5012686;28;20212;-54
2022/07/29 01:21:48;;;;;;;2.63;1.17;;;18.40;99.90;;;;;;5030042;28;20258;-54
2022/07/29 01:25:06;;;;;;;3.67;1.37;;;18.40;99.90;;;;;;5013684;28;20205;-54
2022/07/29 01:27:47;;;;;;;3.33;1.30;;;18.30;99.90;;;;;;5000546;28;20223;-54
2022/07/29 01:30:14;;;;;;;2.13;1.27;;;18.00;99.90;;;;;;5045106;28;20201;-54
2022/07/29 01:32:46;;;;;;;3.67;1.40;;;18.20;99.90;;;;;;5012724;28;20554;-54
2022/07/29 01:35:24;;;;;;;1.60;1.37;;;18.10;99.90;;;;;;5012397;28;20197;-54
2022/07/29 01:38:05;;;;;;;3.17;1.40;;;18.00;99.90;;;;;;5013590;28;20201;-54
2022/07/29 01:40:44;;;;;;;6.10;1.20;;;18.10;99.90;;;;;;5012242;28;20205;-54
2022/07/29 01:43:16;;;;;;;1.40;1.27;;;18.20;99.90;;;;;;5014309;28;20208;-54
2022/07/29 01:46:14;;;;;;;1.60;1.33;;;18.20;99.90;;;;;;5012927;28;20197;-54
2022/07/29 01:48:44;;;;;;;2.17;1.07;;;18.20;99.90;;;;;;5040006;28;20310;-54
2022/07/29 01:51:20;;;;;;;2.50;1.30;;;18.00;99.90;;;;;;5014960;28;20300;-54
2022/07/29 01:53:54;;;;;;;4.43;1.30;;;18.10;99.90;;;;;;5012383;28;20315;-53
2022/07/29 01:56:24;;;;;;;2.10;1.30;;;18.00;99.90;;;;;;5012908;28;20204;-54
2022/07/29 01:58:53;;;;;;;3.43;2.17;;;17.90;99.90;;;;;;5015399;28;20212;-53
2022/07/29 02:01:24;;;;;;;3.13;1.40;;;18.00;99.90;;;;;;5029641;28;20703;-54
2022/07/29 02:03:54;;;;;;;1.87;1.37;;;17.90;99.90;;;;;;5021502;28;20201;-54
2022/07/29 02:06:23;;;;;;;3.17;1.30;;;17.80;99.90;;;;;;5012547;28;20209;-53
2022/07/29 02:08:52;;;;;;;8.77;1.70;;;17.80;99.90;;;;;;5011467;28;20253;-53
2022/07/29 02:11:19;;;;;;;3.07;1.37;;;17.90;99.90;;;;;;5013828;28;21992;-55
2022/07/29 02:13:48;;;;;;;5.17;1.27;;;17.90;99.90;;;;;;4996752;28;20207;-54
2022/07/29 02:16:18;;;;;;;1.17;1.07;;;17.90;99.90;;;;;;5011113;28;20265;-54
2022/07/29 02:18:47;;;;;;;5.93;1.43;;;17.90;99.90;;;;;;5011174;28;20208;-54
2022/07/29 02:21:20;;;;;;;4.20;1.50;;;17.70;99.90;;;;;;5012676;28;20212;-54
2022/07/29 02:23:48;;;;;;;4.30;1.40;;;17.70;99.90;;;;;;5012442;28;20300;-54
2022/07/29 02:26:19;;;;;;;2.60;0.93;;;17.80;99.90;;;;;;5013488;28;20819;-54
2022/07/29 02:28:47;;;;;;;2.30;1.10;;;17.80;99.90;;;;;;5014185;28;20298;-54
2022/07/29 02:31:18;;;;;;;3.50;1.53;;;17.70;99.90;;;;;;5013007;28;20198;-54
2022/07/29 02:33:46;;;;;;;1.83;1.30;;;17.70;99.90;;;;;;5011754;28;20567;-54
2022/07/29 02:36:15;;;;;;;2.00;1.50;;;17.60;99.90;;;;;;5012279;28;20239;-52
2022/07/29 02:38:51;;;;;;;6.70;1.63;;;17.70;99.90;;;;;;5010366;28;20280;-54
2022/07/29 02:41:46;;;;;;;2.33;1.50;;;17.60;99.90;;;;;;5019634;28;20370;-54
2022/07/29 02:44:19;;;;;;;1.77;1.33;;;17.50;99.90;;;;;;5013556;28;20209;-54
2022/07/29 02:46:51;;;;;;;3.03;1.57;;;17.40;99.90;;;;;;5013703;28;20212;-54
2022/07/29 02:49:52;;;;;;;2.80;1.60;;;17.40;99.90;;;;;;5018876;28;20236;-54
2022/07/29 02:52:44;;;;;;;5.17;1.60;;;17.30;99.90;;;;;;5012235;28;20209;-54
2022/07/29 02:55:22;;;;;;;3.03;1.43;;;17.20;99.90;;;;;;5010301;28;20225;-54
2022/07/29 02:58:19;;;;;;;2.03;1.40;;;17.20;99.90;;;;;;5012394;28;20295;-54
2022/07/29 03:00:48;;;;;;;4.50;1.80;;;17.10;99.90;;;;;;5012167;28;20921;-52
2022/07/29 03:03:18;;;;;;;2.70;1.37;;;17.00;99.90;;;;;;5013327;28;20209;-54
2022/07/29 03:05:48;;;;;;;3.43;1.30;;;17.00;99.90;;;;;;5012231;28;20296;-53
2022/07/29 03:08:15;;;;;;;2.97;1.70;;;17.10;99.90;;;;;;5012546;28;20689;-53
2022/07/29 03:10:45;;;;;;;4.23;1.60;;;17.10;99.90;;;;;;5012704;28;20259;-54
2022/07/29 03:13:13;;;;;;;3.43;1.70;;;17.10;99.90;;;;;;5013053;28;20238;-54
2022/07/29 03:15:43;;;;;;;1.47;1.37;;;17.20;99.90;;;;;;5012554;28;20200;-54
2022/07/29 03:18:11;;;;;;;4.47;1.70;;;17.30;99.90;;;;;;5008670;28;20557;-54
2022/07/29 03:20:39;;;;;;;2.17;1.60;;;17.40;99.90;;;;;;4997341;28;20213;-52
2022/07/29 03:23:07;;;;;;;6.07;1.70;;;17.30;99.90;;;;;;5029221;28;20211;-54
2022/07/29 03:25:34;;;;;;;2.70;1.70;;;17.20;99.90;;;;;;5010971;28;20208;-53
2022/07/29 03:28:02;;;;;;;1.60;1.50;;;17.10;99.90;;;;;;4998783;28;20235;-54
2022/07/29 03:30:30;;;;;;;2.50;1.40;;;16.90;99.90;;;;;;5013011;28;20200;-53
2022/07/29 03:32:57;;;;;;;3.97;1.57;;;16.80;99.90;;;;;;5010337;28;20208;-53
2022/07/29 03:35:29;;;;;;;3.73;1.63;;;16.80;99.90;;;;;;5013980;28;20235;-54
2022/07/29 03:37:56;;;;;;;2.07;1.40;;;16.80;99.90;;;;;;5027606;28;20219;-53
2022/07/29 03:40:31;;;;;;;2.00;1.77;;;16.70;99.90;;;;;;5013801;28;20202;-54
2022/07/29 03:43:00;;;;;;;4.03;2.10;;;16.70;99.90;;;;;;5013343;28;20283;-53
2022/07/29 03:45:30;;;;;;;2.20;1.60;;;16.80;99.90;;;;;;5012360;28;20602;-54
2022/07/29 03:48:02;;;;;;;1.97;1.70;;;16.80;99.90;;;;;;5016393;28;20366;-53
2022/07/29 03:50:32;;;;;;;3.13;1.57;;;16.80;99.90;;;;;;5017770;28;20205;-54
2022/07/29 03:53:01;;;;;;;3.87;1.47;;;16.80;99.90;;;;;;5015521;28;20213;-53
2022/07/29 03:55:32;;;;;;;3.03;1.43;;;16.70;99.90;;;;;;5016162;28;20235;-53
2022/07/29 03:58:01;;;;;;;4.30;1.70;;;16.70;99.90;;;;;;5015327;28;20219;-54
2022/07/29 04:00:30;;;;;;;1.90;1.80;;;16.70;99.90;;;;;;5016431;28;20236;-54
2022/07/29 04:02:57;;;;;;;2.03;1.40;;;16.60;99.90;;;;;;5014365;28;20744;-54
2022/07/29 04:05:24;;;;;;;2.37;1.60;;;16.80;99.90;;;;;;5015432;28;21293;-53
2022/07/29 04:07:51;;;;;;;2.27;1.33;;;16.60;99.90;;;;;;5015707;28;20204;-54
2022/07/29 04:10:18;;;;;;;4.20;1.97;;;16.70;99.90;;;;;;5014145;28;20204;-54
2022/07/29 04:12:58;;;;;;;3.30;2.00;;;16.60;99.90;;;;;;5015738;28;20226;-54
2022/07/29 04:15:25;;;;;;;6.03;1.93;;;16.60;99.90;;;;;;5016658;28;20686;-52
2022/07/29 04:17:56;;;;;;;2.43;1.90;;;16.70;99.90;;;;;;5017217;28;20202;-54
2022/07/29 04:20:24;;;;;;;4.30;2.10;;;16.60;99.90;;;;;;5014439;28;20201;-54
2022/07/29 04:22:50;;;;;;;3.37;1.90;;;16.70;99.90;;;;;;5015390;28;20321;-54
2022/07/29 04:25:18;;;;;;;5.27;2.20;;;16.80;99.90;;;;;;5014236;28;20204;-54
2022/07/29 04:27:59;;;;;;;4.07;2.00;;;16.90;99.90;;;;;;5016319;28;20288;-54
2022/07/29 04:30:27;;;;;;;2.23;1.77;;;16.90;99.90;;;;;;5016084;28;20209;-54
2022/07/29 04:32:54;;;;;;;2.07;1.87;;;16.70;99.90;;;;;;5015253;28;20205;-55
2022/07/29 04:35:21;;;;;;;3.10;2.00;;;16.80;99.90;;;;;;5015127;28;20580;-51
2022/07/29 04:37:49;;;;;;;2.53;1.90;;;16.50;99.90;;;;;;5016858;28;20201;-53
2022/07/29 04:40:16;;;;;;;5.83;2.20;;;16.30;99.90;;;;;;5017115;28;20640;-54
2022/07/29 04:42:43;;;;;;;5.80;1.87;;;16.30;99.90;;;;;;5013053;28;20204;-53
2022/07/29 04:45:12;;;;;;;2.10;1.80;;;16.10;99.90;;;;;;5016919;28;20197;-53
2022/07/29 04:47:40;;;;;;;3.43;2.00;;;16.30;99.90;;;;;;5014696;28;20234;-54
2022/07/29 04:50:12;;;;;;;2.10;1.73;;;16.30;99.90;;;;;;5013809;28;20221;-53
2022/07/29 04:52:39;;;;;;;5.40;1.90;;;16.20;99.90;;;;;;5013511;28;20284;-54
2022/07/29 04:55:06;;;;;;;4.23;2.00;;;16.30;99.90;;;;;;5013940;28;20235;-56
2022/07/29 04:57:33;;;;;;;3.17;2.17;;;16.40;99.90;;;;;;5014242;28;20241;-53
2022/07/29 05:00:00;;;;;;;5.07;2.00;;;16.30;99.90;;;;;;5012297;28;20217;-54
2022/07/29 05:02:27;;;;;;;4.17;2.20;;;16.20;99.90;;;;;;5031229;28;20294;-53
2022/07/29 05:04:55;;;;;;;4.03;1.73;;;16.30;99.90;;;;;;5017389;28;20675;-54
2022/07/29 05:07:21;;;;;;;2.67;1.90;;;16.40;99.90;;;;;;5017649;28;20643;-53
2022/07/29 05:09:49;;;;;;;4.57;2.10;;;16.70;99.90;;;;;;5012355;28;20217;-54
2022/07/29 05:12:16;;;;;;;3.43;2.60;;;16.60;99.90;;;;;;5014815;28;20207;-53
2022/07/29 05:14:43;;;;;;;4.00;2.17;;;16.70;99.90;;;;;;5012882;28;20209;-53
2022/07/29 05:17:10;;;;;;;8.73;2.40;;;16.80;99.90;;;;;;5014632;28;20307;-53
2022/07/29 05:19:37;;;;;;;3.53;2.00;;;16.50;99.90;;;;;;5016870;28;20623;-54
2022/07/29 05:22:05;;;;;;;3.53;2.27;;;16.70;99.90;;;;;;5013493;28;20216;-53
2022/07/29 05:24:32;;;;;;;2.73;1.77;;;16.60;99.90;;;;;;5014427;28;20761;-54
2022/07/29 05:26:59;;;;;;;3.27;2.53;;;16.50;99.90;;;;;;5014154;28;20207;-54
2022/07/29 05:29:26;;;;;;;5.53;2.60;;;16.40;99.90;;;;;;5011328;28;20217;-54
2022/07/29 05:32:16;;;;;;;6.63;2.20;;;16.40;99.90;;;;;;5013706;28;20200;-54
2022/07/29 05:34:43;;;;;;;3.10;2.20;;;16.40;99.90;;;;;;5015334;28;20204;-54
2022/07/29 05:37:20;;;;;;;7.80;3.20;;;16.40;99.90;;;;;;5014822;28;20364;-54
2022/07/29 05:39:47;;;;;;;4.73;2.50;;;16.40;99.90;;;;;;5015222;28;20203;-53
2022/07/29 05:42:23;;;;;;;5.93;2.53;;;16.40;99.90;;;;;;5013632;28;20218;-54
2022/07/29 05:44:50;;;;;;;2.20;2.00;;;16.60;99.90;;;;;;5012921;28;20218;-54
2022/07/29 05:47:21;;;;;;;6.13;2.63;;;16.70;99.90;;;;;;5015728;28;20206;-54
2022/07/29 05:49:48;;;;;;;5.13;2.63;;;16.80;99.90;;;;;;5015557;28;20570;-54
2022/07/29 05:52:15;;;;;;;5.23;2.37;;;16.60;99.90;;;;;;5012887;28;20243;-55
2022/07/29 05:54:43;;;;;;;4.57;2.57;;;16.70;99.90;;;;;;5013424;28;20250;-54
2022/07/29 05:57:17;;;;;;;4.67;2.70;;;16.60;99.90;;;;;;5013801;28;20206;-54
2022/07/29 05:59:45;;;;;;;4.40;2.93;;;16.70;99.90;;;;;;5013686;28;20715;-53
2022/07/29 06:02:12;;;;;;;6.00;2.67;;;16.80;99.90;;;;;;5005299;28;20650;-53
2022/07/29 06:04:39;;;;;;;7.63;2.93;;;16.90;99.90;;;;;;5014328;28;20206;-54
2022/07/29 06:07:07;;;;;;;4.13;2.87;;;16.90;99.90;;;;;;5016976;28;20208;-54
2022/07/29 06:09:34;;;;;;;3.37;2.87;;;16.80;99.90;;;;;;5020973;28;20214;-54
2022/07/29 06:12:03;;;;;;;2.97;2.50;;;16.70;99.90;;;;;;5020104;28;20201;-54
2022/07/29 06:14:32;;;;;;;4.17;2.53;;;16.90;99.90;;;;;;5018397;28;20205;-54
2022/07/29 06:16:59;;;;;;;3.17;2.83;;;16.90;99.90;;;;;;5013730;28;20202;-55
2022/07/29 06:19:26;;;;;;;4.90;2.90;;;16.80;99.90;;;;;;5017831;28;20226;-54
2022/07/29 06:21:53;;;;;;;4.43;2.70;;;16.80;99.90;;;;;;5014885;28;21105;-54
2022/07/29 06:24:20;;;;;;;4.57;2.90;;;17.00;99.90;;;;;;5017641;28;20210;-55
2022/07/29 06:26:47;;;;;;;3.97;3.07;;;17.20;99.90;;;;;;5014665;28;20208;-55
2022/07/29 06:29:14;;;;;;;3.47;2.97;;;17.10;99.90;;;;;;5013391;28;20224;-54
2022/07/29 06:31:41;;;;;;;9.77;3.97;;;17.20;99.90;;;;;;4655000;28;10000563;-54
2022/07/29 06:34:09;;;;;;;4.67;3.17;;;17.20;99.90;;;;;;5013665;28;20245;-53
2022/07/29 06:36:37;;;;;;;3.80;3.13;;;16.90;99.90;;;;;;5020245;28;20265;-53
2022/07/29 06:39:07;;;;;;;5.77;3.40;;;17.00;99.90;;;;;;5013321;28;20220;-54
2022/07/29 06:41:35;;;;;;;5.43;2.73;;;17.20;99.90;;;;;;5014015;28;20212;-53
2022/07/29 06:44:04;;;;;;;5.20;3.17;;;17.20;99.90;;;;;;5009594;28;20275;-54
2022/07/29 06:46:31;;;;;;;6.87;3.40;;;16.90;99.90;;;;;;5013716;28;20204;-54
2022/07/29 06:49:01;;;;;;;6.10;3.03;;;17.10;99.90;;;;;;5017410;28;20260;-54
2022/07/29 06:51:29;;;;;;;5.83;3.03;;;17.10;99.90;;;;;;5014679;28;20205;-54
2022/07/29 06:54:00;;;;;;;4.57;3.27;;;17.10;99.90;;;;;;5012623;28;20226;-55
2022/07/29 06:56:35;;;;;;;4.57;3.10;;;17.20;99.90;;;;;;5013406;28;20255;-54
2022/07/29 06:59:07;;;;;;;3.60;3.30;;;17.30;99.90;;;;;;5012082;28;20203;-54
2022/07/29 07:01:36;;;;;;;6.27;3.00;;;17.50;99.90;;;;;;5011491;28;20258;-56
2022/07/29 07:04:04;;;;;;;6.37;3.83;;;17.40;99.90;;;;;;5011109;28;20210;-54
2022/07/29 07:06:31;;;;;;;3.73;3.33;;;17.50;99.90;;;;;;5008561;28;20213;-52
2022/07/29 07:08:58;;;;;;;4.73;3.10;;;17.30;99.90;;;;;;5012045;28;20226;-54
2022/07/29 07:11:25;;;;;;;5.57;3.70;;;17.50;99.90;;;;;;5012153;28;20263;-54
2022/07/29 07:13:52;;;;;;;5.50;3.67;;;17.50;99.90;;;;;;5011687;28;20785;-54
2022/07/29 07:16:19;;;;;;;3.60;3.13;;;17.40;99.90;;;;;;5018205;28;20646;-53
2022/07/29 07:18:46;;;;;;;3.50;2.93;;;17.50;99.90;;;;;;5013149;28;20205;-54
2022/07/29 07:21:14;;;;;;;6.10;3.40;;;17.70;99.90;;;;;;5014222;28;20203;-54
2022/07/29 07:23:45;;;;;;;5.60;3.43;;;17.70;99.90;;;;;;5009262;28;20605;-54
2022/07/29 07:26:12;;;;;;;4.90;2.57;;;17.50;99.90;;;;;;5013000;28;20202;-56
2022/07/29 07:28:39;;;;;;;6.80;3.30;;;17.50;99.90;;;;;;5012514;28;20255;-54
2022/07/29 07:31:06;;;;;;;4.73;3.20;;;17.70;99.90;;;;;;5011617;28;20255;-53
2022/07/29 07:33:33;;;;;;;5.97;3.27;;;17.70;99.90;;;;;;5010820;28;20652;-53
2022/07/29 07:36:01;;;;;;;6.33;3.63;;;17.80;99.90;;;;;;5006840;28;20770;-53
2022/07/29 07:38:27;;;;;;;5.33;3.17;;;18.20;99.90;;;;;;5011201;28;20215;-54
2022/07/29 07:40:54;;;;;;;3.57;3.27;;;18.50;99.90;;;;;;5010966;28;20211;-53
2022/07/29 07:43:22;;;;;;;5.17;3.30;;;19.00;99.90;;;;;;5035845;28;20237;-53
2022/07/29 07:45:49;;;;;;;5.87;3.53;;;19.00;99.90;;;;;;5003623;28;20210;-53
2022/07/29 07:48:16;;;;;;;3.77;3.10;;;19.30;99.90;;;;;;5005966;28;20344;-54
2022/07/29 07:50:43;;;;;;;4.30;3.40;;;19.50;99.90;;;;;;5041903;28;20223;-54
2022/07/29 07:53:10;;;;;;;4.40;3.50;;;19.80;99.90;;;;;;5007253;28;20198;-54
2022/07/29 07:55:42;;;;;;;3.70;3.40;;;19.50;99.90;;;;;;5010040;28;20228;-54
2022/07/29 07:58:29;;;;;;;5.13;3.43;;;19.50;99.90;;;;;;5010720;28;20307;-54
2022/07/29 08:00:56;;;;;;;6.47;3.47;;;19.70;99.90;;;;;;5004079;28;20212;-54
2022/07/29 08:03:23;;;;;;;4.40;3.17;;;19.70;99.90;;;;;;5009236;28;21280;-53
2022/07/29 08:05:51;;;;;;;4.10;2.80;;;19.90;99.90;;;;;;5008641;28;20540;-54
2022/07/29 08:08:19;;;;;;;3.20;2.90;;;20.00;99.90;;;;;;5009045;28;20209;-54
2022/07/29 08:10:52;;;;;;;3.30;2.97;;;20.10;99.90;;;;;;5000403;28;20233;-54
2022/07/29 08:13:21;;;;;;;4.77;2.80;;;20.30;99.90;;;;;;5022546;28;20212;-54
2022/07/29 08:15:57;;;;;;;6.40;2.93;;;21.00;99.90;;;;;;5008846;28;20205;-54
2022/07/29 08:18:28;;;;;;;3.17;2.50;;;21.40;99.90;;;;;;5007543;28;20713;-55
2022/07/29 08:20:56;;;;;;;5.13;2.90;;;21.50;99.90;;;;;;5016788;28;20219;-54
2022/07/29 08:23:24;;;;;;;3.37;2.40;;;21.00;99.90;;;;;;4992961;28;20224;-54
2022/07/29 08:26:13;;;;;;;3.37;2.40;;;21.30;99.90;;;;;;5003089;28;20217;-54
2022/07/29 08:28:46;;;;;;;3.87;2.27;;;21.80;99.90;;;;;;5004454;28;20221;-51
2022/07/29 08:31:14;;;;;;;3.53;2.80;;;21.90;99.90;;;;;;5005713;28;20586;-54
2022/07/29 08:33:41;;;;;;;3.83;2.67;;;22.20;99.90;;;;;;5017089;28;20201;-52
2022/07/29 08:36:08;;;;;;;4.43;2.55;;;22.20;99.90;;;;;;5013775;28;20544;-55
2022/07/29 08:38:35;;;;;;;2.90;1.90;;;21.70;99.90;;;;;;5011401;28;20265;-52
2022/07/29 08:41:02;;;;;;;3.87;2.30;;;22.90;99.90;;;;;;5013285;28;20245;-55
2022/07/29 08:43:30;;;;;;;5.30;2.87;;;23.10;99.90;;;;;;5013652;28;20247;-52
2022/07/29 08:45:57;;;;;;;2.60;2.20;;;23.30;99.90;;;;;;5009133;28;20933;-53
2022/07/29 08:48:24;;;;;;;6.40;2.77;;;23.20;99.90;;;;;;5008724;28;20239;-54
2022/07/29 08:50:59;;;;;;;4.13;2.30;;;23.20;99.90;;;;;;5013135;28;20216;-54
2022/07/29 08:53:28;;;;;;;4.97;2.70;;;23.50;99.90;;;;;;5014780;28;20575;-54
2022/07/29 08:55:58;;;;;;;3.73;2.40;;;23.20;99.90;;;;;;5007124;28;20288;-53
2022/07/29 08:58:27;;;;;;;4.17;2.60;;;23.30;99.90;;;;;;5009933;28;20750;-54
2022/07/29 09:00:56;;;;;;;4.23;2.47;;;23.10;99.90;;;;;;5008334;28;20208;-54
2022/07/29 09:03:27;;;;;;;3.57;2.37;;;23.40;99.90;;;;;;5010049;28;20215;-54
2022/07/29 09:05:54;;;;;;;3.33;1.93;;;23.30;99.90;;;;;;5011053;28;20573;-54
2022/07/29 09:08:22;;;;;;;6.97;2.57;;;23.60;99.90;;;;;;5014199;28;20199;-54
2022/07/29 09:10:51;;;;;;;4.60;1.87;;;23.60;99.90;;;;;;5009760;28;21671;-54
2022/07/29 09:13:18;;;;;;;4.83;2.03;;;24.20;99.90;;;;;;5007868;28;20214;-54
2022/07/29 09:15:50;;;;;;;3.20;1.77;;;23.60;99.90;;;;;;5009507;28;20853;-53
2022/07/29 09:18:43;;;;;;;3.10;2.07;;;24.10;99.90;;;;;;5011041;28;20657;-53
2022/07/29 09:24:10;;;;;;;3.73;2.17;;;24.20;99.90;;;;;;5011312;28;20213;-55
2022/07/29 09:26:46;;;;;;;2.20;1.77;;;24.20;99.90;;;;;;5040222;28;20224;-55
2022/07/29 09:29:17;;;;;;;3.00;1.40;;;24.40;99.90;;;;;;5015262;28;20208;-54
2022/07/29 09:31:46;;;;;;;3.13;1.70;;;24.40;99.90;;;;;;5014229;28;20631;-55
2022/07/29 09:34:21;;;;;;;6.57;2.40;;;24.60;99.90;;;;;;5010832;28;20740;-55
2022/07/29 09:36:51;;;;;;;3.63;1.90;;;24.50;99.90;;;;;;5011928;28;20841;-55
2022/07/29 09:39:43;;;;;;;8.40;2.13;;;24.40;99.90;;;;;;5008270;28;20954;-55
2022/07/29 09:42:12;;;;;;;4.40;1.50;;;24.00;99.90;;;;;;5010386;28;20277;-54
2022/07/29 09:44:48;;;;;;;3.63;1.47;;;24.20;99.90;;;;;;5007623;28;20213;-56
2022/07/29 09:47:17;;;;;;;2.47;1.50;;;24.40;99.90;;;;;;5009226;28;20858;-55
2022/07/29 09:49:59;;;;;;;5.57;1.77;;;24.60;99.90;;;;;;5013432;28;20579;-54
2022/07/29 09:52:30;;;;;;;2.80;1.67;;;24.90;99.90;;;;;;5010190;28;20569;-55
2022/07/29 09:55:08;;;;;;;3.60;1.80;;;24.80;99.90;;;;;;5009346;28;20232;-54
2022/07/29 09:57:39;;;;;;;4.37;2.50;;;24.90;99.90;;;;;;5014618;28;20201;-56
2022/07/29 10:00:11;;;;;;;3.17;2.00;;;24.60;99.90;;;;;;5011817;28;20648;-55
2022/07/29 10:02:42;;;;;;;4.43;1.70;;;24.40;99.90;;;;;;5010728;28;20250;-54
2022/07/29 10:05:25;;;;;;;3.63;1.80;;;24.40;99.90;;;;;;5014441;28;20292;-54
2022/07/29 10:08:02;;;;;;;2.73;1.80;;;24.80;99.90;;;;;;5008483;28;20673;-55
2022/07/29 10:10:33;;;;;;;5.07;1.97;;;24.70;99.90;;;;;;5008021;28;20615;-54
2022/07/29 10:13:03;;;;;;;3.43;1.73;;;24.80;99.90;;;;;;5012987;28;20300;-53
2022/07/29 10:15:40;;;;;;;4.00;1.70;;;24.80;99.90;;;;;;5008876;28;20553;-54
2022/07/29 10:18:08;;;;;;;5.23;1.93;;;24.30;99.90;;;;;;5010288;28;20210;-54
2022/07/29 10:20:36;;;;;;;3.83;2.33;;;24.60;99.90;;;;;;5010039;28;20303;-55
2022/07/29 10:23:04;;;;;;;8.80;2.10;;;24.00;99.90;;;;;;5007616;28;20219;-55
2022/07/29 10:25:31;;;;;;;2.60;1.40;;;24.00;99.90;;;;;;5010430;28;20633;-54
2022/07/29 10:27:58;;;;;;;2.60;1.80;;;24.10;99.90;;;;;;5014962;28;20210;-56
2022/07/29 10:30:26;;;;;;;2.67;1.60;;;24.40;99.90;;;;;;5007541;28;20981;-56
2022/07/29 10:33:21;;;;;;;3.23;1.90;;;24.50;99.90;;;;;;5011170;28;20199;-55
2022/07/29 10:36:16;;;;;;;2.93;2.27;;;24.10;99.90;;;;;;5014936;28;20197;-54
2022/07/29 10:39:10;;;;;;;2.67;1.80;;;24.20;99.90;;;;;;5014274;28;20205;-56
2022/07/29 10:41:59;;;;;;;2.67;2.00;;;24.40;99.90;;;;;;5011627;28;20211;-54
2022/07/29 10:44:27;;;;;;;4.27;2.07;;;24.30;99.90;;;;;;5010489;28;20236;-55
2022/07/29 10:46:54;;;;;;;2.83;1.80;;;24.40;99.90;;;;;;5012793;28;20206;-54
2022/07/29 10:49:26;;;;;;;3.47;1.97;;;24.80;99.90;;;;;;5010442;28;20261;-56
2022/07/29 10:52:09;;;;;;;3.20;1.60;;;24.90;99.90;;;;;;5003384;28;20618;-55
2022/07/29 10:54:36;;;;;;;4.40;2.10;;;24.50;99.90;;;;;;5006950;28;20999;-55
2022/07/29 10:57:15;;;;;;;5.43;2.20;;;24.80;99.90;;;;;;5010911;28;20204;-54
2022/07/29 10:59:46;;;;;;;7.47;2.00;;;24.40;99.90;;;;;;5012127;28;20200;-56
2022/07/29 11:02:31;;;;;;;5.37;2.10;;;24.40;99.90;;;;;;5008895;28;20212;-55
2022/07/29 11:05:19;;;;;;;4.73;1.80;;;24.70;99.90;;;;;;5015116;28;20302;-55
2022/07/29 11:08:12;;;;;;;3.87;1.90;;;25.00;99.90;;;;;;5008669;28;20201;-55
2022/07/29 11:10:50;;;;;;;5.63;2.17;;;24.90;99.90;;;;;;5012172;28;20310;-54
2022/07/29 11:13:42;;;;;;;4.10;1.60;;;25.30;99.90;;;;;;5015363;28;20592;-55
2022/07/29 11:16:09;;;;;;;11.63;3.10;;;25.70;99.90;;;;;;5007260;28;20285;-55
2022/07/29 11:19:12;;;;;;;6.00;1.90;;;25.80;99.90;;;;;;5016037;28;20250;-54
2022/07/29 11:21:41;;;;;;;4.23;1.90;;;25.40;99.90;;;;;;5011681;28;20206;-53
2022/07/29 11:24:30;;;;;;;3.40;2.07;;;25.30;99.90;;;;;;5015616;28;20198;-54
2022/07/29 11:27:13;;;;;;;3.00;1.60;;;25.40;99.90;;;;;;5007465;28;20551;-54
2022/07/29 11:29:55;;;;;;;2.03;1.60;;;26.20;99.90;;;;;;5026530;28;20572;-54
2022/07/29 11:32:34;;;;;;;6.07;1.60;;;25.40;99.90;;;;;;5004012;28;20289;-54
2022/07/29 11:35:23;;;;;;;4.83;2.10;;;26.20;99.90;;;;;;5005878;28;20228;-54
2022/07/29 11:38:24;;;;;;;5.30;2.13;;;25.80;99.90;;;;;;5012785;28;20219;-55
2022/07/29 11:41:23;;;;;;;3.43;2.20;;;26.80;99.90;;;;;;5010592;28;20294;-54
2022/07/29 11:43:59;;;;;;;4.50;2.00;;;27.10;99.90;;;;;;5006988;28;20212;-54
2022/07/29 11:46:48;;;;;;;5.53;1.73;;;27.00;99.90;;;;;;5006295;28;20223;-54
2022/07/29 11:49:24;;;;;;;5.87;1.97;;;27.10;99.90;;;;;;5006913;28;20245;-55
2022/07/29 11:52:00;;;;;;;3.27;2.23;;;27.30;99.90;;;;;;5012877;28;20685;-52
2022/07/29 11:54:34;;;;;;;6.10;2.40;;;26.60;99.90;;;;;;5010785;28;20594;-54
2022/07/29 11:57:21;;;;;;;2.83;2.53;;;26.90;99.90;;;;;;5015367;28;20574;-56
2022/07/29 12:00:07;;;;;;;4.23;1.77;;;27.40;99.90;;;;;;5010692;28;20212;-54
2022/07/29 12:02:42;;;;;;;4.03;1.97;;;27.00;99.90;;;;;;5039045;28;20207;-54
2022/07/29 12:05:15;;;;;;;3.55;2.00;;;27.30;99.90;;;;;;5012961;28;20252;-53
2022/07/29 12:08:22;;;;;;;2.65;1.67;;;26.90;99.90;;;;;;5010525;28;20205;-54
2022/07/29 12:10:50;;;;;;;3.27;1.70;;;27.60;99.90;;;;;;5009116;28;20312;-54
2022/07/29 12:13:21;;;;;;;4.07;2.13;;;27.90;99.90;;;;;;5015107;28;20303;-57
2022/07/29 12:16:04;;;;;;;4.03;1.70;;;27.80;99.90;;;;;;5011862;28;20204;-55
2022/07/29 12:18:31;;;;;;;4.10;1.77;;;27.90;99.90;;;;;;5016369;28;20653;-54
2022/07/29 12:21:04;;;;;;;3.03;1.73;;;27.70;99.90;;;;;;5027877;28;20296;-53
2022/07/29 12:23:33;;;;;;;6.70;2.00;;;28.10;99.90;;;;;;5012311;28;20567;-54
2022/07/29 12:26:05;;;;;;;4.37;2.03;;;28.30;99.90;;;;;;5015477;28;20250;-54
2022/07/29 12:28:39;;;;;;;3.70;1.50;;;28.10;99.90;;;;;;5012320;28;20259;-54
2022/07/29 12:31:13;;;;;;;2.70;1.47;;;28.50;99.90;;;;;;5015289;28;21079;-54
2022/07/29 12:34:01;;;;;;;2.53;1.73;;;28.10;99.90;;;;;;5010950;28;20197;-55
2022/07/29 12:36:28;;;;;;;4.70;1.40;;;27.80;99.90;;;;;;5009636;28;20502;-55
2022/07/29 12:38:55;;;;;;;3.30;1.23;;;28.20;99.90;;;;;;5012727;28;20197;-55
2022/07/29 12:41:22;;;;;;;4.97;1.70;;;28.60;99.90;;;;;;5008134;28;20263;-54
2022/07/29 12:43:54;;;;;;;2.58;1.40;;;28.90;99.90;;;;;;5012820;28;20236;-54
2022/07/29 12:46:21;;;;;;;4.45;1.60;;;28.70;99.90;;;;;;5016750;28;20301;-55
2022/07/29 12:48:56;;;;;;;5.80;1.63;;;28.20;99.90;;;;;;4998851;28;20249;-54
2022/07/29 12:51:30;;;;;;;3.63;1.20;;;28.20;99.90;;;;;;5019012;28;20734;-55
2022/07/29 12:54:10;;;;;;;3.08;1.35;;;28.30;99.90;;;;;;5004018;28;20275;-55
2022/07/29 12:56:38;;;;;;;4.30;1.55;;;28.70;99.90;;;;;;5010325;28;20228;-55
2022/07/29 12:59:18;;;;;;;3.92;1.17;;;28.60;99.90;;;;;;5009350;28;20201;-56
2022/07/29 13:01:47;;;;;;;2.65;1.20;;;28.50;99.90;;;;;;5011182;28;20228;-55
2022/07/29 13:04:32;;;;;;;6.97;1.80;;;27.70;99.90;;;;;;5008204;28;20324;-54
2022/07/29 13:07:01;;;;;;;4.07;1.30;;;26.30;99.90;;;;;;5011141;28;20469;-56
2022/07/29 13:09:45;;;;;;;4.15;1.60;;;26.10;99.90;;;;;;5010958;28;20225;-54
2022/07/29 13:12:13;;;;;;;3.33;1.48;;;27.30;99.90;;;;;;5015343;28;20319;-55
2022/07/29 13:14:43;;;;;;;1.95;1.42;;;27.40;99.90;;;;;;5011947;28;20208;-56
2022/07/29 13:17:20;;;;;;;4.63;1.63;;;27.70;99.90;;;;;;5008731;28;20215;-55